Newfoundland, Pennsylvania
Current Conditions -  °F | °C
As of 6:53 AM on Wednesday 28 Jan 2015 (Local Time) from KMPO Reporting Station
Blowing Snow Blowing Snow  
Wind Chill: -13°   Ceiling: Unl
Heat Index:   Visibility: 3mi
Dew Point:   Wind: 25mph
Humidity: 73%   Direction: 320°NW
Pressure: 29.85"   Gusts: 45mph
Location:  41.31°N, 75.32°W
Report Text: KMPO 281153Z AUTO 32022G39KT 3SM BLSN FEW003 M13/M17 A2985 RMK AO2 PK WND 32039/1148 SLP147 T11331172 11133 21139 53011
Loading
Personal Weather Stations






























Interactive Weather Map New forecast layout! Learn more

10-Day Weather Forecast

Advertisements
Track Severe Weather on mobile